Observation data for Guthrie on 02/22/2019      Previous  Date  Next       Current Mesonet Observations  Soil Data  Daily Summary Page  Observations in Plain Language
KPFS 220600Z 12001KT 02/M02 A2993 RMK A01 T00151019  RH  079%=      5-min Rain = 0
KPFS 220605Z 10003KT 02/M01 A2993 RMK A01 T00181013  RH  081%=      5-min Rain = 0
KPFS 220610Z 10004KT 02/M01 A2993 RMK A01 T00211010  RH  081%=      5-min Rain = 0
KPFS 220615Z 12004KT 02/M01 A2993 RMK A01 T00211010  RH  081%=      5-min Rain = 0
KPFS 220620Z 12004KT 02/M01 A2993 RMK A01 T00211010  RH  081%=      5-min Rain = 0
KPFS 220625Z 12005KT 02/M01 A2993 RMK A01 T00191010  RH  082%=      5-min Rain = 0
KPFS 220630Z 12007KT 02/M01 A2992 RMK A01 T00181010  RH  083%=      5-min Rain = 0
KPFS 220635Z 11007KT 02/M01 A2992 RMK A01 T00191007  RH  084%=      5-min Rain = 0
KPFS 220640Z 11006KT 02/M00 A2992 RMK A01 T00221003  RH  084%=      5-min Rain = 0
KPFS 220645Z 11006KT 03/00 A2992 RMK A01 T002500-0  RH  084%=      5-min Rain = 0
KPFS 220650Z 11007KT 03/00 A2992 RMK A01 T00270001  RH  084%=      5-min Rain = 0
KPFS 220655Z 12006KT 03/00 A2992 RMK A01 T00270001  RH  084%=      5-min Rain = 0
KPFS 220700Z 12005KT 03/00 A2992 RMK A01 T00250000  RH  085%=      5-min Rain = 0
KPFS 220705Z 12004KT 02/M00 A2993 RMK A01 T00231001  RH  085%=      5-min Rain = 0
KPFS 220710Z 11005KT 02/M00 A2993 RMK A01 T00221001  RH  086%=      5-min Rain = 0
KPFS 220715Z 12004KT 02/M00 A2993 RMK A01 T00211002  RH  086%=      5-min Rain = 0
KPFS 220720Z 11004KT 02/M00 A2993 RMK A01 T00201002  RH  087%=      5-min Rain = 0
KPFS 220725Z 10005KT 02/00 A2993 RMK A01 T00230002  RH  087%=      5-min Rain = 0
KPFS 220730Z 10005KT 02/00 A2992 RMK A01 T00240003  RH  087%=      5-min Rain = 0
KPFS 220735Z 09005KT 02/00 A2992 RMK A01 T00230002  RH  087%=      5-min Rain = 0
KPFS 220740Z 09005KT 02/00 A2992 RMK A01 T00220002  RH  087%=      5-min Rain = 0
KPFS 220745Z 09006KT 02/00 A2992 RMK A01 T00220002  RH  088%=      5-min Rain = 0
KPFS 220750Z 09005KT 02/00 A2992 RMK A01 T00210001  RH  088%=      5-min Rain = 0
KPFS 220755Z 09004KT 02/00 A2992 RMK A01 T00210002  RH  088%=      5-min Rain = 0
KPFS 220800Z 09004KT 02/01 A2992 RMK A01 T00240006  RH  089%=      5-min Rain = 0
KPFS 220805Z 09004KT 03/01 A2992 RMK A01 T00290010  RH  089%=      5-min Rain = 0
KPFS 220810Z 08004KT 03/01 A2992 RMK A01 T00300010  RH  088%=      5-min Rain = 0
KPFS 220815Z 08004KT 03/01 A2992 RMK A01 T00320011  RH  088%=      5-min Rain = 0
KPFS 220820Z 05002KT 03/01 A2992 RMK A01 T00300008  RH  087%=      5-min Rain = 0
KPFS 220825Z 02002KT 02/M01 A2992 RMK A01 T00161007  RH  086%=      5-min Rain = 0
KPFS 220830Z 01003KT 01/M01 A2991 RMK A01 T00131008  RH  087%=      5-min Rain = 0
KPFS 220835Z 01003KT 01/M01 A2991 RMK A01 T00121008  RH  088%=      5-min Rain = 0
KPFS 220840Z 01004KT 01/M01 A2991 RMK A01 T00131006  RH  088%=      5-min Rain = 0
KPFS 220845Z 02004KT 01/M01 A2991 RMK A01 T00131006  RH  088%=      5-min Rain = 0
KPFS 220850Z 02005KT 01/M01 A2991 RMK A01 T00131006  RH  088%=      5-min Rain = 0
KPFS 220855Z 01004KT 01/M01 A2991 RMK A01 T00131005  RH  088%=      5-min Rain = 0
KPFS 220900Z 02004KT 02/M00 A2991 RMK A01 T00151004  RH  088%=      5-min Rain = 0
KPFS 220905Z 03004KT 02/M00 A2992 RMK A01 T00161003  RH  088%=      5-min Rain = 0
KPFS 220910Z 02005KT 02/M00 A2992 RMK A01 T00171002  RH  088%=      5-min Rain = 0
KPFS 220915Z 02004KT 02/M00 A2992 RMK A01 T00181001  RH  088%=      5-min Rain = 0
KPFS 220920Z 03004KT 02/M00 A2992 RMK A01 T00181001  RH  088%=      5-min Rain = 0
KPFS 220925Z 03005KT 02/00 A2992 RMK A01 T002000-0  RH  088%=      5-min Rain = 0
KPFS 220930Z 03005KT 02/00 A2992 RMK A01 T00210001  RH  088%=      5-min Rain = 0
KPFS 220935Z 03006KT 02/00 A2992 RMK A01 T00220002  RH  087%=      5-min Rain = 0
KPFS 220940Z 04006KT 02/00 A2992 RMK A01 T00240003  RH  087%=      5-min Rain = 0
KPFS 220945Z 04006KT 03/01 A2992 RMK A01 T00260005  RH  087%=      5-min Rain = 0
KPFS 220950Z 03006KT 03/01 A2992 RMK A01 T00270007  RH  087%=      5-min Rain = 0
KPFS 220955Z 03006KT 03/01 A2992 RMK A01 T00290008  RH  087%=      5-min Rain = 0
KPFS 221000Z 03006KT 03/01 A2992 RMK A01 T00300009  RH  088%=      5-min Rain = 0
KPFS 221005Z 01005KT 03/01 A2992 RMK A01 T00300010  RH  088%=      5-min Rain = 0
KPFS 221010Z 01007KT 03/01 A2992 RMK A01 T00290009  RH  088%=      5-min Rain = 0
KPFS 221015Z 02006KT 03/01 A2992 RMK A01 T00290010  RH  089%=      5-min Rain = 0
KPFS 221020Z 02006KT 03/01 A2992 RMK A01 T00290011  RH  089%=      5-min Rain = 0
KPFS 221025Z 01005KT 03/01 A2992 RMK A01 T00290012  RH  090%=      5-min Rain = 0
KPFS 221030Z 01006KT 03/01 A2992 RMK A01 T00290013  RH  090%=      5-min Rain = 0
KPFS 221035Z 01007KT 03/01 A2992 RMK A01 T00290013  RH  091%=      5-min Rain = 0
KPFS 221040Z 01007KT 03/01 A2993 RMK A01 T00280014  RH  092%=      5-min Rain = 0
KPFS 221045Z 01007KT 03/01 A2993 RMK A01 T00270014  RH  092%=      5-min Rain = 0
KPFS 221050Z 02004KT 03/02 A2993 RMK A01 T00270015  RH  093%=      5-min Rain = 0
KPFS 221055Z 03004KT 03/02 A2993 RMK A01 T00270016  RH  093%=      5-min Rain = 0
KPFS 221100Z 02003KT 03/02 A2994 RMK A01 T00280017  RH  094%=      5-min Rain = 0
KPFS 221105Z 02004KT 03/02 A2994 RMK A01 T00280017  RH  094%=      5-min Rain = 0
KPFS 221110Z 02005KT 03/02 A2994 RMK A01 T00290018  RH  094%=      5-min Rain = 0
KPFS 221115Z 01005KT 03/02 A2994 RMK A01 T00290019  RH  094%=      5-min Rain = 0
KPFS 221120Z 01004KT 03/02 A2995 RMK A01 T00300020  RH  095%=      5-min Rain = 0
KPFS 221125Z 01004KT 03/02 A2995 RMK A01 T00300021  RH  095%=      5-min Rain = 0
KPFS 221130Z 01004KT 03/02 A2995 RMK A01 T00310021  RH  095%=      5-min Rain = 0
KPFS 221135Z 01005KT 03/02 A2995 RMK A01 T00280019  RH  095%=      5-min Rain = 0
KPFS 221140Z 02006KT 03/02 A2995 RMK A01 T00280019  RH  095%=      5-min Rain = 0
KPFS 221145Z 02007KT 03/02 A2995 RMK A01 T00270019  RH  096%=      5-min Rain = 0
KPFS 221150Z 03006KT 03/02 A2996 RMK A01 T00280019  RH  096%=      5-min Rain = 0
KPFS 221155Z 02006KT 03/02 A2996 RMK A01 T00280020  RH  096%=      5-min Rain = 0
KPFS 221200Z 02007KT 03/02 A2996 RMK A01 T00280020  RH  096%=      5-min Rain = 0
KPFS 221205Z 03007KT 03/02 A2995 RMK A01 T00280020  RH  096%=      5-min Rain = 0
KPFS 221210Z 03007KT 03/02 A2996 RMK A01 T00280021  RH  096%=      5-min Rain = 0
KPFS 221215Z 02007KT 03/02 A2996 RMK A01 T00290021  RH  096%=      5-min Rain = 0
KPFS 221220Z 02007KT 03/02 A2996 RMK A01 T00290022  RH  096%=      5-min Rain = 0
KPFS 221225Z 02007KT 03/02 A2996 RMK A01 T00290022  RH  097%=      5-min Rain = 0
KPFS 221230Z 01006KT 03/02 A2997 RMK A01 T00290022  RH  097%=      5-min Rain = 0
KPFS 221235Z 01006KT 03/02 A2997 RMK A01 T00290022  RH  097%=      5-min Rain = 0
KPFS 221240Z 01006KT 03/02 A2997 RMK A01 T00280022  RH  097%=      5-min Rain = 0
KPFS 221245Z 02005KT 03/02 A2998 RMK A01 T00290022  RH  097%=      5-min Rain = 0
KPFS 221250Z 02004KT 03/02 A2998 RMK A01 T00290022  RH  097%=      5-min Rain = 0
KPFS 221255Z 02005KT 03/02 A2998 RMK A01 T00290023  RH  097%=      5-min Rain = 0
KPFS 221300Z 02006KT 03/02 A2997 RMK A01 T00290023  RH  097%=      5-min Rain = 0
KPFS 221305Z 02005KT 03/02 A2998 RMK A01 T00300023  RH  097%=      5-min Rain = 0
KPFS 221310Z 02005KT 03/02 A2998 RMK A01 T00300023  RH  097%=      5-min Rain = 0
KPFS 221315Z 03005KT 03/02 A2997 RMK A01 T00300023  RH  097%=      5-min Rain = 0
KPFS 221320Z 02005KT 03/02 A2997 RMK A01 T00300024  RH  097%=      5-min Rain = 0
KPFS 221325Z 01006KT 03/02 A2997 RMK A01 T00300024  RH  097%=      5-min Rain = 0
KPFS 221330Z 02006KT 03/02 A2996 RMK A01 T00300024  RH  097%=      5-min Rain = 0
KPFS 221335Z 03007KT 03/02 A2996 RMK A01 T00310024  RH  097%=      5-min Rain = 0
KPFS 221340Z 03007KT 03/03 A2996 RMK A01 T00310025  RH  097%=      5-min Rain = 0
KPFS 221345Z 03006KT 03/03 A2996 RMK A01 T00320026  RH  097%=      5-min Rain = 0
KPFS 221350Z 02006KT 03/03 A2996 RMK A01 T00320026  RH  098%=      5-min Rain = 0
KPFS 221355Z 02006KT 03/03 A2997 RMK A01 T00330027  RH  098%=      5-min Rain = 0
KPFS 221400Z 02006KT 03/03 A2997 RMK A01 T00340028  RH  098%=      5-min Rain = 0
KPFS 221405Z 02006KT 03/03 A2997 RMK A01 T00340028  RH  098%=      5-min Rain = 0
KPFS 221410Z 04006KT 04/03 A2997 RMK A01 T00350029  RH  098%=      5-min Rain = 0
KPFS 221415Z 04007KT 04/03 A2997 RMK A01 T00350030  RH  098%=      5-min Rain = 0
KPFS 221420Z 03006KT 04/03 A2997 RMK A01 T00360030  RH  098%=      5-min Rain = 0
KPFS 221425Z 02007KT 04/03 A2997 RMK A01 T00360031  RH  098%=      5-min Rain = 0
KPFS 221430Z 01007KT 04/03 A2997 RMK A01 T00370031  RH  098%=      5-min Rain = 0
KPFS 221435Z 01007KT 04/03 A2997 RMK A01 T00370031  RH  098%=      5-min Rain = 0
KPFS 221440Z 02007KT 04/03 A2998 RMK A01 T00370032  RH  098%=      5-min Rain = 0
KPFS 221445Z 01007KT 04/03 A2998 RMK A01 T00380032  RH  098%=      5-min Rain = 0
KPFS 221450Z 03006KT 04/03 A2998 RMK A01 T00380033  RH  098%=      5-min Rain = 0
KPFS 221455Z 04007KT 04/03 A2998 RMK A01 T00390034  RH  098%=      5-min Rain = 0
KPFS 221500Z 04006KT 04/04 A2998 RMK A01 T00400035  RH  098%=      5-min Rain = 0
KPFS 221505Z 04006KT 04/04 A2998 RMK A01 T00410035  RH  098%=      5-min Rain = 0
KPFS 221510Z 05006KT 04/04 A2998 RMK A01 T00410036  RH  098%=      5-min Rain = 0
KPFS 221515Z 05006KT 04/04 A2998 RMK A01 T00420037  RH  098%=      5-min Rain = 0
KPFS 221520Z 06006KT 04/04 A2998 RMK A01 T00430038  RH  098%=      5-min Rain = 0
KPFS 221525Z 05006KT 04/04 A2999 RMK A01 T00430038  RH  098%=      5-min Rain = 0
KPFS 221530Z 06007KT 04/04 A2999 RMK A01 T00430038  RH  098%=      5-min Rain = 0
KPFS 221535Z 06006KT 04/04 A2999 RMK A01 T00440039  RH  098%=      5-min Rain = 0
KPFS 221540Z 07007KT 05/04 A2999 RMK A01 T00450039  RH  098%=      5-min Rain = 0
KPFS 221545Z 07005KT 05/04 A2999 RMK A01 T00460041  RH  098%=      5-min Rain = 0
KPFS 221550Z 08005KT 05/04 A2999 RMK A01 T00470042  RH  098%=      5-min Rain = 0
KPFS 221555Z 08005KT 05/04 A2999 RMK A01 T00480043  RH  099%=      5-min Rain = 0
KPFS 221600Z 08006KT 05/04 A2999 RMK A01 T00490044  RH  099%=      5-min Rain = 0
KPFS 221605Z 08005KT 05/04 A2999 RMK A01 T00490044  RH  099%=      5-min Rain = 0
KPFS 221610Z 07005KT 05/05 A2999 RMK A01 T00500045  RH  099%=      5-min Rain = 0
KPFS 221615Z 07005KT 05/05 A2999 RMK A01 T00510046  RH  099%=      5-min Rain = 0
KPFS 221620Z 06005KT 05/05 A2999 RMK A01 T00510046  RH  099%=      5-min Rain = 0
KPFS 221625Z 07005KT 05/05 A2998 RMK A01 T00510047  RH  099%=      5-min Rain = 0
KPFS 221630Z 07005KT 05/05 A2998 RMK A01 T00530048  RH  099%=      5-min Rain = 0
KPFS 221635Z 07004KT 05/05 A2998 RMK A01 T00520048  RH  099%=      5-min Rain = 0
KPFS 221640Z 05005KT 05/05 A2997 RMK A01 T00540049  RH  099%=      5-min Rain = 0
KPFS 221645Z 06004KT 06/05 A2997 RMK A01 T00550050  RH  099%=      5-min Rain = 0
KPFS 221650Z 06004KT 06/05 A2997 RMK A01 T00550050  RH  099%=      5-min Rain = 0.01
KPFS 221655Z 05004KT 06/05 A2997 RMK A01 T00560051  RH  099%=      5-min Rain = 0
KPFS 221700Z 06003KT 06/05 A2997 RMK A01 T00560051  RH  099%=      5-min Rain = 0
KPFS 221705Z 06004KT 06/05 A2997 RMK A01 T00580053  RH  099%=      5-min Rain = 0
KPFS 221710Z 06004KT 06/05 A2997 RMK A01 T00590054  RH  099%=      5-min Rain = 0
KPFS 221715Z 06004KT 06/06 A2996 RMK A01 T00600055  RH  099%=      5-min Rain = 0
KPFS 221720Z 06004KT 06/06 A2996 RMK A01 T00610056  RH  099%=      5-min Rain = 0
KPFS 221725Z 06005KT 06/06 A2996 RMK A01 T00620057  RH  099%=      5-min Rain = 0
KPFS 221730Z 08004KT 06/06 A2995 RMK A01 T00640059  RH  099%=      5-min Rain = 0
KPFS 221735Z 08005KT 07/06 A2995 RMK A01 T00650060  RH  099%=      5-min Rain = 0
KPFS 221740Z 05004KT 07/06 A2995 RMK A01 T00660061  RH  099%=      5-min Rain = 0
KPFS 221745Z 06004KT 07/06 A2995 RMK A01 T00650060  RH  099%=      5-min Rain = 0
KPFS 221750Z 06003KT 06/06 A2995 RMK A01 T00640059  RH  099%=      5-min Rain = 0
KPFS 221755Z 03001KT 06/06 A2995 RMK A01 T00640059  RH  099%=      5-min Rain = 0
KPFS 221800Z 02004KT 06/06 A2994 RMK A01 T00640059  RH  099%=      5-min Rain = 0
KPFS 221805Z 06003KT 07/06 A2994 RMK A01 T00650060  RH  099%=      5-min Rain = 0
KPFS 221810Z 05003KT 07/06 A2994 RMK A01 T00660061  RH  099%=      5-min Rain = 0
KPFS 221815Z 06003KT 07/06 A2994 RMK A01 T00670061  RH  099%=      5-min Rain = 0
KPFS 221820Z 07003KT 07/06 A2994 RMK A01 T00680063  RH  099%=      5-min Rain = 0
KPFS 221825Z 06003KT 07/06 A2994 RMK A01 T00670062  RH  099%=      5-min Rain = 0
KPFS 221830Z 07004KT 07/06 A2994 RMK A01 T00680063  RH  099%=      5-min Rain = 0
KPFS 221835Z 07003KT 07/06 A2994 RMK A01 T00690064  RH  099%=      5-min Rain = 0
KPFS 221840Z 07004KT 07/07 A2993 RMK A01 T00700065  RH  099%=      5-min Rain = 0
KPFS 221845Z 06005KT 07/06 A2993 RMK A01 T00690064  RH  099%=      5-min Rain = 0
KPFS 221850Z 06005KT 07/06 A2993 RMK A01 T00690064  RH  099%=      5-min Rain = 0
KPFS 221855Z 05005KT 07/06 A2993 RMK A01 T00690064  RH  099%=      5-min Rain = 0
KPFS 221900Z 07004KT 07/07 A2993 RMK A01 T00700065  RH  099%=      5-min Rain = 0
KPFS 221905Z 06004KT 07/07 A2992 RMK A01 T00710066  RH  099%=      5-min Rain = 0
KPFS 221910Z 04004KT 07/07 A2992 RMK A01 T00700065  RH  099%=      5-min Rain = 0
KPFS 221915Z 06004KT 07/07 A2992 RMK A01 T00720067  RH  099%=      5-min Rain = 0
KPFS 221920Z 10004KT 07/07 A2992 RMK A01 T00730068  RH  099%=      5-min Rain = 0
KPFS 221925Z 11005KT 08/07 A2991 RMK A01 T00750070  RH  099%=      5-min Rain = 0
KPFS 221930Z 08005KT 07/07 A2991 RMK A01 T00740068  RH  099%=      5-min Rain = 0
KPFS 221935Z 07005KT 07/07 A2991 RMK A01 T00730067  RH  099%=      5-min Rain = 0
KPFS 221940Z 07005KT 07/07 A2991 RMK A01 T00730068  RH  099%=      5-min Rain = 0
KPFS 221945Z 08005KT 07/07 A2991 RMK A01 T00740069  RH  099%=      5-min Rain = 0
KPFS 221950Z 08004KT 08/07 A299 RMK A01 T00750069  RH  099%=      5-min Rain = 0
KPFS 221955Z 11005KT 08/07 A2991 RMK A01 T00750069  RH  099%=      5-min Rain = 0
KPFS 222000Z 08005KT 07/07 A299 RMK A01 T00730068  RH  099%=      5-min Rain = 0
KPFS 222005Z 08004KT 07/07 A299 RMK A01 T00740069  RH  099%=      5-min Rain = 0
KPFS 222010Z 09005KT 07/07 A2989 RMK A01 T00740069  RH  099%=      5-min Rain = 0
KPFS 222015Z 10006KT 07/07 A2989 RMK A01 T00740069  RH  099%=      5-min Rain = 0
KPFS 222020Z 09006KT 08/07 A2988 RMK A01 T00750069  RH  099%=      5-min Rain = 0
KPFS 222025Z 09007KT 08/07 A2988 RMK A01 T00760070  RH  099%=      5-min Rain = 0
KPFS 222030Z 09006KT 08/07 A2988 RMK A01 T00750070  RH  099%=      5-min Rain = 0
KPFS 222035Z 09006KT 08/07 A2988 RMK A01 T00750070  RH  099%=      5-min Rain = 0
KPFS 222040Z 11006KT 08/07 A2988 RMK A01 T00750069  RH  099%=      5-min Rain = 0
KPFS 222045Z 11007KT 07/07 A2988 RMK A01 T00740069  RH  099%=      5-min Rain = 0
KPFS 222050Z 09006KT 08/07 A2988 RMK A01 T00760070  RH  099%=      5-min Rain = 0
KPFS 222055Z 10006KT 08/07 A2988 RMK A01 T00760070  RH  099%=      5-min Rain = 0
KPFS 222100Z 10006KT 08/07 A2988 RMK A01 T00750070  RH  099%=      5-min Rain = 0
KPFS 222105Z 09006KT 08/07 A2988 RMK A01 T00770071  RH  099%=      5-min Rain = 0
KPFS 222110Z 11006KT 08/07 A2988 RMK A01 T00760071  RH  099%=      5-min Rain = 0
KPFS 222115Z 10006KT 08/07 A2988 RMK A01 T00760071  RH  099%=      5-min Rain = 0
KPFS 222120Z 10006KT 08/07 A2987 RMK A01 T00770072  RH  099%=      5-min Rain = 0
KPFS 222125Z 10006KT 08/07 A2987 RMK A01 T00770071  RH  099%=      5-min Rain = 0
KPFS 222130Z 11006KT 08/07 A2987 RMK A01 T00780072  RH  099%=      5-min Rain = 0
KPFS 222135Z 10007KT 08/07 A2987 RMK A01 T00780072  RH  099%=      5-min Rain = 0
KPFS 222140Z 08006KT 08/07 A2987 RMK A01 T00780073  RH  099%=      5-min Rain = 0
KPFS 222145Z 09005KT 08/07 A2986 RMK A01 T00800074  RH  099%=      5-min Rain = 0
KPFS 222150Z 09006KT 08/07 A2986 RMK A01 T00790073  RH  099%=      5-min Rain = 0
KPFS 222155Z 08006KT 08/07 A2986 RMK A01 T00800073  RH  098%=      5-min Rain = 0
KPFS 222200Z 09006KT 08/07 A2986 RMK A01 T00790073  RH  098%=      5-min Rain = 0
KPFS 222205Z 09006KT 08/07 A2986 RMK A01 T00800074  RH  098%=      5-min Rain = 0
KPFS 222210Z 08006KT 08/07 A2986 RMK A01 T00810074  RH  098%=      5-min Rain = 0
KPFS 222215Z 08007KT 08/07 A2986 RMK A01 T00810073  RH  097%=      5-min Rain = 0
KPFS 222220Z 07006KT 08/07 A2986 RMK A01 T00810073  RH  097%=      5-min Rain = 0
KPFS 222225Z 10006KT 08/07 A2986 RMK A01 T00820073  RH  097%=      5-min Rain = 0
KPFS 222230Z 09006KT 08/07 A2986 RMK A01 T00820073  RH  096%=      5-min Rain = 0
KPFS 222235Z 11006KT 08/07 A2986 RMK A01 T00830073  RH  096%=      5-min Rain = 0
KPFS 222240Z 09005KT 08/07 A2985 RMK A01 T00840073  RH  095%=      5-min Rain = 0
KPFS 222245Z 08005KT 09/07 A2985 RMK A01 T00850073  RH  095%=      5-min Rain = 0
KPFS 222250Z 08006KT 09/07 A2985 RMK A01 T00850072  RH  094%=      5-min Rain = 0
KPFS 222255Z 08006KT 09/07 A2985 RMK A01 T00850071  RH  094%=      5-min Rain = 0
KPFS 222300Z 08007KT 09/07 A2985 RMK A01 T00850071  RH  094%=      5-min Rain = 0
KPFS 222305Z 08006KT 08/07 A2985 RMK A01 T00840071  RH  094%=      5-min Rain = 0
KPFS 222310Z 08007KT 08/07 A2985 RMK A01 T00840070  RH  094%=      5-min Rain = 0
KPFS 222315Z 08007KT 08/07 A2984 RMK A01 T00830070  RH  094%=      5-min Rain = 0
KPFS 222320Z 08006KT 08/07 A2984 RMK A01 T00830071  RH  094%=      5-min Rain = 0
KPFS 222325Z 09006KT 08/07 A2984 RMK A01 T00840071  RH  094%=      5-min Rain = 0
KPFS 222330Z 07006KT 08/07 A2984 RMK A01 T00840070  RH  094%=      5-min Rain = 0
KPFS 222335Z 08007KT 08/07 A2984 RMK A01 T00830070  RH  094%=      5-min Rain = 0
KPFS 222340Z 08007KT 08/07 A2983 RMK A01 T00830070  RH  094%=      5-min Rain = 0
KPFS 222345Z 08008KT 08/07 A2983 RMK A01 T00820069  RH  094%=      5-min Rain = 0
KPFS 222350Z 09008KT 08/07 A2983 RMK A01 T00820069  RH  094%=      5-min Rain = 0
KPFS 222355Z 10006KT 08/07 A2983 RMK A01 T00820069  RH  094%=      5-min Rain = 0
KPFS 230000Z 08007KT 08/07 A2983 RMK A01 T00810069  RH  094%=      5-min Rain = 0
KPFS 230005Z 08006KT 08/07 A2983 RMK A01 T00810069  RH  094%=      5-min Rain = 0
KPFS 230010Z 08007KT 08/07 A2983 RMK A01 T00800068  RH  095%=      5-min Rain = 0
KPFS 230015Z 09007KT 08/07 A2983 RMK A01 T00800068  RH  095%=      5-min Rain = 0
KPFS 230020Z 10007KT 08/07 A2983 RMK A01 T00790068  RH  095%=      5-min Rain = 0
KPFS 230025Z 08006KT 08/07 A2983 RMK A01 T00790068  RH  095%=      5-min Rain = 0
KPFS 230030Z 08007KT 08/07 A2983 RMK A01 T00790068  RH  095%=      5-min Rain = 0
KPFS 230035Z 07007KT 08/07 A2983 RMK A01 T00780068  RH  096%=      5-min Rain = 0
KPFS 230040Z 07007KT 08/07 A2983 RMK A01 T00780068  RH  096%=      5-min Rain = 0
KPFS 230045Z 08007KT 08/07 A2983 RMK A01 T00780068  RH  096%=      5-min Rain = 0
KPFS 230050Z 08007KT 08/07 A2983 RMK A01 T00780068  RH  096%=      5-min Rain = 0
KPFS 230055Z 09007KT 08/07 A2982 RMK A01 T00780068  RH  096%=      5-min Rain = 0
KPFS 230100Z 07007KT 08/07 A2983 RMK A01 T00780068  RH  096%=      5-min Rain = 0
KPFS 230105Z 08007KT 08/07 A2983 RMK A01 T00780068  RH  096%=      5-min Rain = 0
KPFS 230110Z 09006KT 08/07 A2983 RMK A01 T00780068  RH  096%=      5-min Rain = 0
KPFS 230115Z 08006KT 08/07 A2983 RMK A01 T00780068  RH  096%=      5-min Rain = 0
KPFS 230120Z 09005KT 08/07 A2983 RMK A01 T00780069  RH  096%=      5-min Rain = 0
KPFS 230125Z 07004KT 08/07 A2983 RMK A01 T00780069  RH  096%=      5-min Rain = 0
KPFS 230130Z 07005KT 08/07 A2983 RMK A01 T00780068  RH  096%=      5-min Rain = 0
KPFS 230135Z 07006KT 08/07 A2983 RMK A01 T00770068  RH  097%=      5-min Rain = 0
KPFS 230140Z 08007KT 08/07 A2983 RMK A01 T00770069  RH  097%=      5-min Rain = 0
KPFS 230145Z 09007KT 08/07 A2983 RMK A01 T00770069  RH  097%=      5-min Rain = 0
KPFS 230150Z 08008KT 08/07 A2984 RMK A01 T00770069  RH  097%=      5-min Rain = 0
KPFS 230155Z 09008KT 08/07 A2984 RMK A01 T00770069  RH  097%=      5-min Rain = 0
KPFS 230200Z 09006KT 08/07 A2984 RMK A01 T00770069  RH  098%=      5-min Rain = 0
KPFS 230205Z 09007KT 08/07 A2984 RMK A01 T00770069  RH  098%=      5-min Rain = 0
KPFS 230210Z 09007KT 08/07 A2985 RMK A01 T00760070  RH  098%=      5-min Rain = 0
KPFS 230215Z 09006KT 08/07 A2985 RMK A01 T00770070  RH  098%=      5-min Rain = 0
KPFS 230220Z 09007KT 08/07 A2984 RMK A01 T00760070  RH  098%=      5-min Rain = 0
KPFS 230225Z 10008KT 08/07 A2984 RMK A01 T00760070  RH  098%=      5-min Rain = 0
KPFS 230230Z 10006KT 08/07 A2985 RMK A01 T00760070  RH  098%=      5-min Rain = 0
KPFS 230235Z 10006KT 08/07 A2985 RMK A01 T00760070  RH  099%=      5-min Rain = 0
KPFS 230240Z 08007KT 08/07 A2984 RMK A01 T00760070  RH  099%=      5-min Rain = 0
KPFS 230245Z 08008KT 08/07 A2983 RMK A01 T00750070  RH  099%=      5-min Rain = 0
KPFS 230250Z 08009KT 08/07 A2983 RMK A01 T00750070  RH  099%=      5-min Rain = 0
KPFS 230255Z 07007KT 08/07 A2983 RMK A01 T00750069  RH  099%=      5-min Rain = 0
KPFS 230300Z 08008KT 08/07 A2983 RMK A01 T00750070  RH  099%=      5-min Rain = 0
KPFS 230305Z 07009KT 08/07 A2982 RMK A01 T00750070  RH  099%=      5-min Rain = 0
KPFS 230310Z 07008KT 08/07 A2981 RMK A01 T00750070  RH  099%=      5-min Rain = 0
KPFS 230315Z 07007KT 08/07 A2981 RMK A01 T00750070  RH  099%=      5-min Rain = 0
KPFS 230320Z 07008KT 07/07 A298 RMK A01 T00740070  RH  099%=      5-min Rain = 0
KPFS 230325Z 07009KT 07/07 A298 RMK A01 T00740069  RH  099%=      5-min Rain = 0
KPFS 230330Z 07009KT 07/07 A298 RMK A01 T00740069  RH  099%=      5-min Rain = 0
KPFS 230335Z 08010KT 07/07 A2979 RMK A01 T00740070  RH  099%=      5-min Rain = 0
KPFS 230340Z 08011KT 07/07 A2979 RMK A01 T00740070  RH  100%=      5-min Rain = 0
KPFS 230345Z 08011KT 07/07 A2978 RMK A01 T00740070  RH  100%=      5-min Rain = 0
KPFS 230350Z 07011KT 07/07 A2978 RMK A01 T00740070  RH  100%=      5-min Rain = 0
KPFS 230355Z 08010KT 07/07 A2978 RMK A01 T00740070  RH  100%=      5-min Rain = 0
KPFS 230400Z 07009KT 07/07 A2978 RMK A01 T00740070  RH  100%=      5-min Rain = 0
KPFS 230405Z 08008KT 07/07 A2978 RMK A01 T00740070  RH  100%=      5-min Rain = 0
KPFS 230410Z 09008KT 07/07 A2978 RMK A01 T00740070  RH  100%=      5-min Rain = 0
KPFS 230415Z 10008KT 07/07 A2978 RMK A01 T00740070  RH  100%=      5-min Rain = 0
KPFS 230420Z 10010KT 07/07 A2978 RMK A01 T00740070  RH  100%=      5-min Rain = 0
KPFS 230425Z 10011G16KT 07/07 A2978 RMK A01 T00730070  RH  100%=      5-min Rain = 0
KPFS 230430Z 10011KT 07/07 A2977 RMK A01 T00730070  RH  100%=      5-min Rain = 0
KPFS 230435Z 11012KT 07/07 A2977 RMK A01 T00730069  RH  100%=      5-min Rain = 0
KPFS 230440Z 11011KT 07/07 A2977 RMK A01 T00730069  RH  100%=      5-min Rain = 0
KPFS 230445Z 10010G15KT 07/07 A2977 RMK A01 T00730069  RH  100%=      5-min Rain = 0
KPFS 230450Z 10011KT 07/07 A2977 RMK A01 T00730069  RH  100%=      5-min Rain = 0
KPFS 230455Z 10010KT 07/07 A2976 RMK A01 T00730069  RH  100%=      5-min Rain = 0
KPFS 230500Z 10008G13KT 07/07 A2976 RMK A01 T00730069  RH  100%=      5-min Rain = 0
KPFS 230505Z 09007G12KT 07/07 A2977 RMK A01 T00730070  RH  100%=      5-min Rain = 0
KPFS 230510Z 08006KT 07/07 A2977 RMK A01 T00740070  RH  100%=      5-min Rain = 0
KPFS 230515Z 07006KT 07/07 A2977 RMK A01 T00740070  RH  100%=      5-min Rain = 0
KPFS 230520Z 08006KT 07/07 A2977 RMK A01 T00740070  RH  100%=      5-min Rain = 0
KPFS 230525Z 08006KT 07/07 A2977 RMK A01 T00740070  RH  100%=      5-min Rain = 0
KPFS 230530Z 08006KT 07/07 A2977 RMK A01 T00740070  RH  100%=      5-min Rain = 0
KPFS 230535Z 08007KT 07/07 A2976 RMK A01 T00740070  RH  100%=      5-min Rain = 0
KPFS 230540Z 08007KT 07/07 A2976 RMK A01 T00730070  RH  100%=      5-min Rain = 0
KPFS 230545Z 08008KT 07/07 A2975 RMK A01 T00730070  RH  100%=      5-min Rain = 0
KPFS 230550Z 08007KT 07/07 A2974 RMK A01 T00730070  RH  100%=      5-min Rain = 0
KPFS 230555Z 08007KT 07/07 A2973 RMK A01 T00730069  RH  100%=      5-min Rain = 0

Page generated in 0.0376 seconds.